Time;durP1;ratioP1;P1;durP2;ratioP2;P2;SDS_P1;SDS_P2;PMS_P1;PMS_P2;Temp;Humidity;BMP_temperature;BMP_pressure;BME280_temperature;BME280_humidity;BME280_pressure;Samples;Min_cycle;Max_cycle;Signal;HPM_P1;HPM_P2
2022/06/23 00:02:39;;;;;;;;;9.00;6.25;;;;;;;;5039849;28;51102;-58
2022/06/23 00:05:25;;;;;;;;;8.75;7.25;;;;;;;;5041305;28;51180;-58
2022/06/23 00:08:16;;;;;;;;;9.25;8.25;;;;;;;;5023272;28;51009;-58
2022/06/23 00:11:03;;;;;;;;;7.75;5.50;;;;;;;;5041238;28;51232;-57
2022/06/23 00:13:48;;;;;;;;;11.75;7.25;;;;;;;;5041152;28;51341;-58
2022/06/23 00:16:36;;;;;;;;;9.25;7.00;;;;;;;;5040782;28;51200;-58
2022/06/23 00:19:31;;;;;;;;;6.25;5.75;;;;;;;;5026241;28;51072;-58
2022/06/23 00:22:30;;;;;;;;;10.00;8.00;;;;;;;;5041061;28;51126;-58
2022/06/23 00:25:33;;;;;;;;;8.50;8.00;;;;;;;;5041241;28;51072;-57
2022/06/23 00:28:38;;;;;;;;;7.75;6.75;;;;;;;;5040967;28;51193;-58
2022/06/23 00:31:22;;;;;;;;;9.50;6.75;;;;;;;;5041111;28;51087;-57
2022/06/23 00:34:20;;;;;;;;;10.50;8.50;;;;;;;;5038981;28;51043;-58
2022/06/23 00:37:04;;;;;;;;;8.25;6.50;;;;;;;;5021831;28;51169;-59
2022/06/23 00:39:53;;;;;;;;;9.00;7.25;;;;;;;;5040959;28;51329;-58
2022/06/23 00:42:38;;;;;;;;;6.25;6.25;;;;;;;;5040021;28;51180;-58
2022/06/23 00:45:30;;;;;;;;;9.25;7.00;;;;;;;;5040988;28;51166;-59
2022/06/23 00:48:14;;;;;;;;;9.25;4.75;;;;;;;;5040107;28;50945;-58
2022/06/23 00:51:03;;;;;;;;;12.00;7.25;;;;;;;;5039425;28;51455;-57
2022/06/23 00:53:51;;;;;;;;;5.25;5.00;;;;;;;;5038930;28;51138;-58
2022/06/23 00:56:35;;;;;;;;;9.75;7.00;;;;;;;;5038971;28;51168;-59
2022/06/23 00:59:32;;;;;;;;;8.50;7.50;;;;;;;;5040046;28;51214;-57
2022/06/23 01:02:21;;;;;;;;;9.00;6.25;;;;;;;;5040329;28;51098;-58
2022/06/23 01:05:26;;;;;;;;;6.75;6.75;;;;;;;;5040462;28;51459;-58
2022/06/23 01:08:22;;;;;;;;;10.75;7.75;;;;;;;;5040048;28;51119;-58
2022/06/23 01:11:15;;;;;;;;;11.00;6.75;;;;;;;;5040474;28;50988;-56
2022/06/23 01:14:10;;;;;;;;;8.00;6.75;;;;;;;;5039996;28;51047;-59
2022/06/23 01:17:20;;;;;;;;;11.75;7.00;;;;;;;;5040155;28;51473;-58
2022/06/23 01:20:11;;;;;;;;;12.50;6.75;;;;;;;;5040031;28;51056;-58
2022/06/23 01:23:16;;;;;;;;;6.50;6.50;;;;;;;;5040425;28;51133;-57
2022/06/23 01:26:04;;;;;;;;;8.25;5.75;;;;;;;;5039953;28;51054;-58
2022/06/23 01:28:56;;;;;;;;;9.00;6.00;;;;;;;;5038927;28;51138;-57
2022/06/23 01:31:55;;;;;;;;;9.75;6.25;;;;;;;;5039545;28;51531;-57
2022/06/23 01:34:54;;;;;;;;;12.00;8.00;;;;;;;;5039488;28;51099;-58
2022/06/23 01:37:59;;;;;;;;;12.00;7.25;;;;;;;;5035889;28;51090;-57
2022/06/23 01:41:08;;;;;;;;;7.00;6.25;;;;;;;;5015589;28;51593;-59
2022/06/23 01:44:18;;;;;;;;;10.50;6.00;;;;;;;;5015828;28;51515;-57
2022/06/23 01:47:27;;;;;;;;;7.00;5.00;;;;;;;;5016111;28;52527;-58
2022/06/23 01:50:37;;;;;;;;;7.50;6.75;;;;;;;;5015798;28;51092;-57
2022/06/23 02:00:55;;;;;;;;;8.75;6.00;;;;;;;;5015819;28;51510;-58
2022/06/23 02:04:05;;;;;;;;;8.00;7.50;;;;;;;;5015249;28;51101;-59
2022/06/23 02:07:14;;;;;;;;;6.50;5.25;;;;;;;;5015660;28;51092;-58
2022/06/23 02:10:24;;;;;;;;;6.75;6.00;;;;;;;;5015013;28;51122;-58
2022/06/23 02:13:35;;;;;;;;;8.00;4.00;;;;;;;;5015500;28;51269;-58
2022/06/23 02:16:31;;;;;;;;;5.00;4.25;;;;;;;;5033063;28;51065;-59
2022/06/23 02:19:35;;;;;;;;;6.00;2.50;;;;;;;;5039611;28;51114;-58
2022/06/23 02:22:28;;;;;;;;;8.00;3.50;;;;;;;;5035476;28;51099;-59
2022/06/23 02:25:19;;;;;;;;;4.25;2.50;;;;;;;;5038869;28;51194;-58
2022/06/23 02:28:06;;;;;;;;;7.75;4.00;;;;;;;;5038808;28;51181;-59
2022/06/23 02:30:55;;;;;;;;;3.00;3.00;;;;;;;;5038990;28;51091;-58
2022/06/23 02:33:45;;;;;;;;;9.00;2.75;;;;;;;;5039186;28;51092;-58
2022/06/23 02:36:42;;;;;;;;;6.25;3.00;;;;;;;;5039001;28;51286;-58
2022/06/23 02:39:45;;;;;;;;;7.00;4.00;;;;;;;;5039221;28;51178;-58
2022/06/23 02:42:36;;;;;;;;;4.25;4.25;;;;;;;;5042804;28;51081;-58
2022/06/23 02:45:40;;;;;;;;;5.25;4.75;;;;;;;;5043194;28;51096;-56
2022/06/23 02:48:35;;;;;;;;;4.50;3.75;;;;;;;;5042871;28;50984;-58
2022/06/23 02:51:39;;;;;;;;;5.25;3.25;;;;;;;;5042781;28;51192;-58
2022/06/23 02:54:23;;;;;;;;;10.00;3.75;;;;;;;;5042813;28;51051;-58
2022/06/23 02:57:40;;;;;;;;;8.00;4.00;;;;;;;;5042531;28;51225;-58
2022/06/23 03:00:25;;;;;;;;;6.25;5.25;;;;;;;;4961398;28;51238;-57
2022/06/23 03:03:20;;;;;;;;;6.25;5.00;;;;;;;;4992731;28;51129;-57
2022/06/23 03:06:27;;;;;;;;;7.25;5.00;;;;;;;;5042875;28;51055;-58
2022/06/23 03:09:20;;;;;;;;;6.75;4.50;;;;;;;;5028723;28;51083;-58
2022/06/23 03:12:11;;;;;;;;;8.75;7.00;;;;;;;;5041682;28;51110;-58
2022/06/23 03:15:17;;;;;;;;;9.75;7.50;;;;;;;;5041920;28;51449;-57
2022/06/23 03:18:22;;;;;;;;;7.75;7.50;;;;;;;;5042059;28;51194;-58
2022/06/23 03:21:13;;;;;;;;;7.75;4.75;;;;;;;;5011718;28;51157;-59
2022/06/23 03:24:09;;;;;;;;;6.50;4.25;;;;;;;;5041977;28;51000;-57
2022/06/23 03:27:13;;;;;;;;;11.25;7.00;;;;;;;;5042547;28;51047;-59
2022/06/23 03:30:17;;;;;;;;;12.25;12.00;;;;;;;;5041961;28;51083;-58
2022/06/23 03:33:14;;;;;;;;;40.25;32.00;;;;;;;;5042051;28;51099;-58
2022/06/23 03:36:28;;;;;;;;;72.75;59.50;;;;;;;;5041915;28;51166;-58
2022/06/23 03:42:38;;;;;;;;;32.50;26.75;;;;;;;;5041810;28;51082;-57
2022/06/23 03:45:36;;;;;;;;;31.00;24.25;;;;;;;;5041715;28;51146;-58
2022/06/23 03:48:20;;;;;;;;;21.00;16.75;;;;;;;;5041765;28;51142;-58
2022/06/23 03:51:23;;;;;;;;;28.75;24.25;;;;;;;;5041482;28;51135;-58
2022/06/23 03:54:14;;;;;;;;;62.75;46.00;;;;;;;;5042068;28;51011;-58
2022/06/23 03:57:12;;;;;;;;;69.75;53.25;;;;;;;;5041355;28;51410;-58
2022/06/23 04:00:18;;;;;;;;;36.75;32.25;;;;;;;;5041608;28;51553;-57
2022/06/23 04:03:38;;;;;;;;;32.75;21.00;;;;;;;;5041537;28;51161;-58
2022/06/23 04:06:36;;;;;;;;;22.75;18.25;;;;;;;;5041682;28;51094;-58
2022/06/23 04:09:37;;;;;;;;;14.75;11.75;;;;;;;;5041151;28;51346;-57
2022/06/23 04:12:22;;;;;;;;;12.75;12.25;;;;;;;;5041079;28;51189;-58
2022/06/23 04:15:12;;;;;;;;;16.50;9.75;;;;;;;;5041193;28;51288;-57
2022/06/23 04:18:19;;;;;;;;;13.50;10.25;;;;;;;;5021682;28;51176;-58
2022/06/23 04:21:08;;;;;;;;;12.50;12.00;;;;;;;;5029117;28;51115;-57
2022/06/23 04:23:55;;;;;;;;;12.25;8.00;;;;;;;;5040861;28;51029;-58
2022/06/23 04:26:57;;;;;;;;;10.00;8.75;;;;;;;;5041310;28;51284;-59
2022/06/23 04:29:50;;;;;;;;;14.75;10.25;;;;;;;;5036942;28;51147;-59
2022/06/23 04:32:36;;;;;;;;;42.50;32.75;;;;;;;;5038056;28;51154;-58
2022/06/23 04:35:32;;;;;;;;;18.75;15.25;;;;;;;;5040560;28;52140;-59
2022/06/23 04:38:32;;;;;;;;;10.00;8.75;;;;;;;;5040847;28;51087;-57
2022/06/23 04:41:38;;;;;;;;;10.50;8.00;;;;;;;;5032514;28;51359;-57
2022/06/23 04:44:26;;;;;;;;;13.50;9.75;;;;;;;;5040784;28;51170;-58
2022/06/23 04:47:22;;;;;;;;;13.50;11.25;;;;;;;;5040566;28;51252;-58
2022/06/23 04:50:18;;;;;;;;;11.50;9.50;;;;;;;;5040274;28;51097;-58
2022/06/23 04:53:03;;;;;;;;;10.00;8.50;;;;;;;;5040236;28;51409;-59
2022/06/23 04:55:56;;;;;;;;;12.25;7.25;;;;;;;;5040206;28;51136;-58
2022/06/23 04:58:44;;;;;;;;;13.00;11.00;;;;;;;;5040692;28;51112;-59
2022/06/23 05:01:35;;;;;;;;;12.00;9.50;;;;;;;;5040256;28;51453;-57
2022/06/23 05:04:26;;;;;;;;;12.75;9.00;;;;;;;;5040089;28;51087;-58
2022/06/23 05:07:23;;;;;;;;;12.50;7.00;;;;;;;;5040282;28;51423;-59
2022/06/23 05:10:16;;;;;;;;;9.50;8.00;;;;;;;;5040022;28;51569;-57
2022/06/23 05:13:34;;;;;;;;;16.25;11.75;;;;;;;;5039234;28;51189;-57
2022/06/23 05:16:27;;;;;;;;;18.50;9.50;;;;;;;;5005706;28;51220;-58
2022/06/23 05:19:15;;;;;;;;;18.25;13.75;;;;;;;;5039835;28;51084;-58
2022/06/23 05:22:23;;;;;;;;;14.50;12.00;;;;;;;;5024885;28;51107;-57
2022/06/23 05:25:14;;;;;;;;;15.50;12.50;;;;;;;;5040147;28;51316;-58
2022/06/23 05:28:07;;;;;;;;;16.25;13.75;;;;;;;;5039793;28;51113;-57
2022/06/23 05:31:05;;;;;;;;;19.75;14.00;;;;;;;;5039573;28;51053;-58
2022/06/23 05:34:12;;;;;;;;;18.00;14.00;;;;;;;;5031123;28;51234;-57
2022/06/23 05:37:15;;;;;;;;;19.25;15.25;;;;;;;;5039558;28;51127;-59
2022/06/23 05:40:19;;;;;;;;;22.75;14.75;;;;;;;;5039584;28;51237;-57
2022/06/23 05:43:05;;;;;;;;;21.25;18.25;;;;;;;;5039487;28;51185;-59
2022/06/23 05:45:55;;;;;;;;;39.00;32.25;;;;;;;;5039550;28;51563;-59
2022/06/23 05:48:46;;;;;;;;;36.25;32.75;;;;;;;;5038970;28;51091;-58
2022/06/23 05:52:02;;;;;;;;;40.25;34.25;;;;;;;;5039483;28;51129;-58
2022/06/23 05:55:00;;;;;;;;;41.75;34.00;;;;;;;;5039451;28;51131;-57
2022/06/23 05:58:13;;;;;;;;;43.75;34.50;;;;;;;;5039324;28;51073;-59
2022/06/23 06:01:04;;;;;;;;;45.75;35.50;;;;;;;;5034393;28;51193;-59
2022/06/23 06:04:08;;;;;;;;;39.50;31.50;;;;;;;;5039258;28;51192;-57
2022/06/23 06:06:54;;;;;;;;;46.50;34.50;;;;;;;;5035017;28;51288;-58
2022/06/23 06:09:45;;;;;;;;;40.75;33.75;;;;;;;;5038382;28;51134;-55
2022/06/23 06:12:40;;;;;;;;;48.75;41.00;;;;;;;;5038965;28;51078;-57
2022/06/23 06:15:33;;;;;;;;;52.00;40.25;;;;;;;;5036854;28;51017;-59
2022/06/23 06:18:36;;;;;;;;;47.75;39.25;;;;;;;;5039576;28;51108;-59
2022/06/23 06:22:03;;;;;;;;;41.25;34.25;;;;;;;;5038375;28;51073;-57
2022/06/23 06:24:52;;;;;;;;;45.75;37.50;;;;;;;;5038530;28;51184;-59
2022/06/23 06:27:44;;;;;;;;;42.75;34.50;;;;;;;;5038839;28;51482;-59
2022/06/23 06:30:56;;;;;;;;;46.75;37.75;;;;;;;;5038783;28;51033;-57
2022/06/23 06:34:02;;;;;;;;;44.00;34.00;;;;;;;;5039116;28;51066;-57
2022/06/23 06:36:54;;;;;;;;;42.50;35.50;;;;;;;;5038987;28;51150;-57
2022/06/23 06:40:00;;;;;;;;;47.00;37.00;;;;;;;;5038848;28;51792;-58
2022/06/23 06:43:00;;;;;;;;;52.00;41.25;;;;;;;;5038511;28;51094;-58
2022/06/23 06:45:46;;;;;;;;;55.50;43.25;;;;;;;;5039179;28;51036;-58
2022/06/23 06:48:32;;;;;;;;;53.50;42.75;;;;;;;;5038599;28;51471;-58
2022/06/23 06:51:20;;;;;;;;;47.00;39.00;;;;;;;;5038744;28;51064;-58
2022/06/23 06:54:13;;;;;;;;;51.75;41.25;;;;;;;;5038230;28;51660;-58
2022/06/23 06:57:02;;;;;;;;;47.25;37.00;;;;;;;;5037922;28;51128;-57
2022/06/23 06:59:58;;;;;;;;;43.00;33.75;;;;;;;;5039104;28;51015;-58
2022/06/23 07:02:51;;;;;;;;;29.25;26.00;;;;;;;;5038648;28;51066;-58
2022/06/23 07:06:01;;;;;;;;;27.25;23.50;;;;;;;;5038798;28;51568;-57
2022/06/23 07:09:01;;;;;;;;;28.00;21.75;;;;;;;;5035496;28;51083;-59
2022/06/23 07:12:00;;;;;;;;;20.00;17.00;;;;;;;;5038785;28;51013;-60
2022/06/23 07:15:02;;;;;;;;;21.00;18.75;;;;;;;;5038494;28;51352;-58
2022/06/23 07:17:51;;;;;;;;;18.75;16.00;;;;;;;;5036679;28;51050;-58
2022/06/23 07:20:50;;;;;;;;;24.00;18.00;;;;;;;;5038738;28;51131;-57
2022/06/23 07:23:49;;;;;;;;;17.50;17.00;;;;;;;;5038595;28;51029;-57
2022/06/23 07:26:46;;;;;;;;;29.25;20.75;;;;;;;;5038215;28;51454;-58
2022/06/23 07:29:49;;;;;;;;;20.00;18.50;;;;;;;;5041042;28;51131;-58
2022/06/23 07:32:39;;;;;;;;;27.25;22.00;;;;;;;;5042147;28;51061;-58
2022/06/23 07:35:48;;;;;;;;;27.75;27.75;;;;;;;;5041748;28;51170;-58
2022/06/23 07:38:43;;;;;;;;;35.75;30.25;;;;;;;;5042119;28;51068;-58
2022/06/23 07:41:46;;;;;;;;;28.25;26.50;;;;;;;;5041495;28;51554;-59
2022/06/23 07:44:41;;;;;;;;;32.50;30.00;;;;;;;;5041546;28;51199;-58
2022/06/23 07:47:33;;;;;;;;;26.50;24.25;;;;;;;;5041595;28;51061;-58
2022/06/23 07:50:39;;;;;;;;;26.50;24.75;;;;;;;;5041862;28;51446;-58
2022/06/23 07:53:44;;;;;;;;;30.25;28.50;;;;;;;;5041490;28;51503;-58
2022/06/23 07:56:31;;;;;;;;;28.50;27.50;;;;;;;;5041279;28;51184;-58
2022/06/23 07:59:17;;;;;;;;;32.00;25.75;;;;;;;;5041575;28;51063;-57
2022/06/23 08:02:09;;;;;;;;;28.75;25.50;;;;;;;;5041271;28;51126;-58
2022/06/23 08:05:26;;;;;;;;;28.00;27.00;;;;;;;;5041922;28;51205;-58
2022/06/23 08:08:26;;;;;;;;;21.25;20.00;;;;;;;;5041301;28;51119;-58
2022/06/23 08:14:20;;;;;;;;;31.25;27.25;;;;;;;;5041280;28;51158;-58
2022/06/23 08:17:08;;;;;;;;;29.75;26.25;;;;;;;;5041223;28;51079;-57
2022/06/23 08:20:02;;;;;;;;;32.75;30.50;;;;;;;;5041090;28;51187;-59
2022/06/23 08:22:48;;;;;;;;;25.25;22.50;;;;;;;;5040840;28;51155;-59
2022/06/23 08:25:35;;;;;;;;;36.50;31.25;;;;;;;;5041231;28;51603;-58
2022/06/23 08:28:35;;;;;;;;;18.00;17.00;;;;;;;;5040946;28;50966;-59
2022/06/23 08:31:40;;;;;;;;;15.75;13.50;;;;;;;;5041274;28;51072;-58
2022/06/23 08:34:26;;;;;;;;;22.75;19.75;;;;;;;;5040946;28;51380;-58
2022/06/23 08:37:17;;;;;;;;;24.50;23.25;;;;;;;;5023929;28;51034;-58
2022/06/23 08:40:22;;;;;;;;;24.50;19.75;;;;;;;;5037642;28;51647;-58
2022/06/23 08:43:15;;;;;;;;;17.75;16.25;;;;;;;;5040953;28;51171;-56
2022/06/23 08:46:10;;;;;;;;;31.75;29.75;;;;;;;;5040382;28;51534;-58
2022/06/23 08:49:19;;;;;;;;;30.50;24.75;;;;;;;;5039517;28;51114;-58
2022/06/23 08:52:27;;;;;;;;;26.75;20.50;;;;;;;;5040438;28;51066;-58
2022/06/23 08:55:29;;;;;;;;;19.75;17.75;;;;;;;;5040228;28;51125;-58
2022/06/23 08:58:21;;;;;;;;;34.25;30.00;;;;;;;;5040691;28;51069;-58
2022/06/23 09:01:13;;;;;;;;;26.25;22.25;;;;;;;;5039941;28;51302;-57
2022/06/23 09:04:14;;;;;;;;;18.25;18.25;;;;;;;;5035734;28;51045;-59
2022/06/23 09:07:07;;;;;;;;;24.25;21.75;;;;;;;;5040360;28;51160;-58
2022/06/23 09:09:56;;;;;;;;;23.25;20.00;;;;;;;;5038558;28;50973;-57
2022/06/23 09:12:46;;;;;;;;;15.75;12.75;;;;;;;;5039678;28;51092;-57
2022/06/23 09:15:49;;;;;;;;;17.50;14.25;;;;;;;;5036009;28;51375;-58
2022/06/23 09:18:52;;;;;;;;;22.50;15.25;;;;;;;;5039760;28;51226;-59
2022/06/23 09:22:15;;;;;;;;;18.25;13.75;;;;;;;;5039808;28;51153;-57
2022/06/23 09:25:31;;;;;;;;;16.00;13.75;;;;;;;;4958785;28;51130;-58
2022/06/23 09:28:19;;;;;;;;;21.50;16.50;;;;;;;;4958240;28;51099;-58
2022/06/23 09:31:30;;;;;;;;;17.00;13.50;;;;;;;;5039545;28;51171;-58
2022/06/23 09:34:20;;;;;;;;;15.00;12.00;;;;;;;;5039525;28;51868;-58
2022/06/23 09:37:05;;;;;;;;;18.25;15.75;;;;;;;;5035730;28;50991;-58
2022/06/23 09:40:27;;;;;;;;;21.50;16.00;;;;;;;;5039579;28;51015;-58
2022/06/23 09:43:22;;;;;;;;;17.00;12.75;;;;;;;;4958367;28;51171;-56
2022/06/23 09:46:25;;;;;;;;;10.25;10.25;;;;;;;;5039819;28;51396;-58
2022/06/23 09:49:31;;;;;;;;;5.25;5.25;;;;;;;;5039149;28;51050;-59
2022/06/23 09:52:28;;;;;;;;;4.75;3.25;;;;;;;;5039835;28;51052;-58
2022/06/23 09:55:33;;;;;;;;;5.25;3.75;;;;;;;;5039347;28;51222;-57
2022/06/23 09:58:45;;;;;;;;;5.75;3.00;;;;;;;;5039364;28;51114;-58
2022/06/23 10:01:42;;;;;;;;;7.00;4.75;;;;;;;;5039400;28;51118;-57
2022/06/23 10:04:49;;;;;;;;;5.25;3.75;;;;;;;;5036263;28;52842;-58
2022/06/23 10:08:02;;;;;;;;;3.50;3.25;;;;;;;;5037266;28;51488;-57
2022/06/23 10:18:09;;;;;;;;;5.25;5.00;;;;;;;;5038860;28;51080;-58
2022/06/23 10:20:55;;;;;;;;;9.25;6.50;;;;;;;;5039206;28;51200;-59
2022/06/23 10:24:08;;;;;;;;;7.75;5.00;;;;;;;;5038933;28;52409;-58
2022/06/23 10:27:04;;;;;;;;;11.00;6.00;;;;;;;;5036544;28;51134;-58
2022/06/23 10:30:23;;;;;;;;;8.00;6.00;;;;;;;;5038940;28;51178;-58
2022/06/23 10:33:27;;;;;;;;;7.00;5.00;;;;;;;;5039387;28;51206;-58
2022/06/23 10:36:32;;;;;;;;;16.25;14.25;;;;;;;;5038794;28;51066;-58
2022/06/23 10:39:47;;;;;;;;;5.75;5.75;;;;;;;;5035557;28;51194;-56
2022/06/23 10:42:42;;;;;;;;;9.50;8.25;;;;;;;;5026247;28;51508;-58
2022/06/23 10:45:45;;;;;;;;;8.25;6.50;;;;;;;;5038689;28;51052;-58
2022/06/23 10:48:39;;;;;;;;;5.75;5.25;;;;;;;;5039196;28;51095;-58
2022/06/23 10:51:35;;;;;;;;;8.50;6.75;;;;;;;;5038661;28;51165;-57
2022/06/23 10:54:44;;;;;;;;;8.50;8.50;;;;;;;;5038971;28;51072;-58
2022/06/23 10:57:48;;;;;;;;;7.50;5.00;;;;;;;;5038841;28;51110;-57
2022/06/23 11:00:52;;;;;;;;;4.00;4.00;;;;;;;;5039124;28;51153;-58
2022/06/23 11:03:56;;;;;;;;;0.25;0.25;;;;;;;;5040569;28;51531;-58
2022/06/23 11:06:52;;;;;;;;;6.75;4.25;;;;;;;;5042549;28;51064;-57
2022/06/23 11:09:52;;;;;;;;;0.25;0.00;;;;;;;;5042607;28;51315;-57
2022/06/23 11:12:58;;;;;;;;;6.50;4.00;;;;;;;;5042486;28;51098;-51
2022/06/23 11:16:04;;;;;;;;;6.00;3.00;;;;;;;;5042727;28;51250;-53
2022/06/23 11:19:19;;;;;;;;;3.25;2.50;;;;;;;;5042046;28;51512;-56
2022/06/23 11:22:45;;;;;;;;;3.25;2.00;;;;;;;;5042303;28;50969;-58
2022/06/23 11:25:41;;;;;;;;;2.25;2.25;;;;;;;;5027130;28;51165;-56
2022/06/23 11:28:46;;;;;;;;;2.00;2.00;;;;;;;;5042611;28;52259;-57
2022/06/23 11:32:02;;;;;;;;;3.00;1.50;;;;;;;;5042193;28;51490;-57
2022/06/23 11:35:05;;;;;;;;;0.50;0.50;;;;;;;;5042037;28;51465;-54
2022/06/23 11:37:58;;;;;;;;;1.00;1.00;;;;;;;;5042017;28;51128;-55
2022/06/23 11:40:46;;;;;;;;;2.25;1.00;;;;;;;;5041713;28;51000;-51
2022/06/23 11:43:58;;;;;;;;;3.00;2.00;;;;;;;;5042321;28;52163;-56
2022/06/23 11:46:57;;;;;;;;;5.00;3.00;;;;;;;;5041607;28;51487;-55
2022/06/23 11:50:05;;;;;;;;;4.00;4.00;;;;;;;;5041750;28;51233;-54
2022/06/23 11:53:10;;;;;;;;;3.75;3.75;;;;;;;;5040986;28;51141;-56
2022/06/23 11:55:54;;;;;;;;;5.50;3.75;;;;;;;;5041940;28;50985;-56
2022/06/23 11:59:14;;;;;;;;;5.50;4.00;;;;;;;;5041687;28;51538;-56
2022/06/23 12:02:09;;;;;;;;;3.50;2.00;;;;;;;;4979680;28;51184;-57
2022/06/23 12:05:17;;;;;;;;;5.00;3.25;;;;;;;;5041593;28;51496;-55
2022/06/23 12:08:24;;;;;;;;;0.50;0.25;;;;;;;;5041261;28;51080;-54
2022/06/23 12:11:27;;;;;;;;;1.75;0.75;;;;;;;;5041114;28;51140;-58
2022/06/23 12:14:13;;;;;;;;;3.00;0.00;;;;;;;;5040333;28;51094;-55
2022/06/23 12:17:21;;;;;;;;;2.25;1.50;;;;;;;;5042889;28;51238;-55
2022/06/23 12:20:18;;;;;;;;;3.50;2.00;;;;;;;;5024272;28;51313;-53
2022/06/23 12:23:22;;;;;;;;;4.50;2.25;;;;;;;;5041593;28;50980;-56
2022/06/23 12:26:27;;;;;;;;;4.50;2.75;;;;;;;;5041163;28;51173;-57
2022/06/23 12:29:32;;;;;;;;;3.00;1.00;;;;;;;;5040899;28;51068;-51
2022/06/23 12:32:35;;;;;;;;;1.75;1.00;;;;;;;;5025660;28;51417;-54
2022/06/23 12:35:27;;;;;;;;;3.75;1.00;;;;;;;;5040720;28;51217;-57
2022/06/23 12:38:19;;;;;;;;;0.00;0.00;;;;;;;;5041037;28;51108;-56
2022/06/23 12:41:17;;;;;;;;;2.50;2.25;;;;;;;;5040458;28;51535;-55
2022/06/23 12:44:08;;;;;;;;;1.00;1.00;;;;;;;;5040960;28;51426;-54
2022/06/23 12:47:01;;;;;;;;;1.25;1.25;;;;;;;;5039912;28;51151;-53
2022/06/23 12:50:13;;;;;;;;;1.50;1.00;;;;;;;;5039214;28;51266;-57
2022/06/23 12:53:14;;;;;;;;;1.00;1.00;;;;;;;;4981291;28;51078;-57
2022/06/23 12:56:26;;;;;;;;;4.25;1.25;;;;;;;;5039870;28;51156;-55
2022/06/23 12:59:29;;;;;;;;;2.75;2.75;;;;;;;;5039925;28;51411;-57
2022/06/23 13:02:35;;;;;;;;;2.75;2.25;;;;;;;;5039971;28;51115;-54
2022/06/23 13:05:37;;;;;;;;;3.25;3.25;;;;;;;;5040630;28;51142;-53
2022/06/23 13:08:22;;;;;;;;;0.75;0.75;;;;;;;;5039136;28;51152;-55
2022/06/23 13:11:16;;;;;;;;;4.00;2.00;;;;;;;;5040481;28;51352;-56
2022/06/23 13:14:06;;;;;;;;;2.75;2.00;;;;;;;;5040023;28;51138;-53
2022/06/23 13:17:27;;;;;;;;;3.00;2.00;;;;;;;;5040288;28;51138;-53
2022/06/23 13:20:29;;;;;;;;;3.75;2.00;;;;;;;;5026902;28;51150;-54
2022/06/23 13:23:16;;;;;;;;;3.75;1.50;;;;;;;;5040089;28;51138;-52
2022/06/23 13:26:22;;;;;;;;;2.50;2.50;;;;;;;;5039333;28;51349;-54
2022/06/23 13:29:12;;;;;;;;;2.75;2.75;;;;;;;;5039607;28;51056;-56
2022/06/23 13:32:28;;;;;;;;;4.25;4.00;;;;;;;;5040098;28;51461;-51
2022/06/23 13:35:26;;;;;;;;;2.00;2.00;;;;;;;;5039902;28;51374;-58
2022/06/23 13:38:51;;;;;;;;;3.75;1.25;;;;;;;;5039988;28;51361;-55
2022/06/23 13:41:41;;;;;;;;;3.00;2.75;;;;;;;;5005099;28;51187;-53
2022/06/23 13:44:45;;;;;;;;;1.75;1.75;;;;;;;;5039894;28;51071;-50
2022/06/23 13:47:50;;;;;;;;;1.25;1.00;;;;;;;;5039607;28;51399;-54
2022/06/23 13:50:48;;;;;;;;;3.00;1.00;;;;;;;;5035210;28;51157;-55
2022/06/23 13:53:39;;;;;;;;;3.75;1.75;;;;;;;;5035260;28;51333;-56
2022/06/23 13:56:43;;;;;;;;;1.75;1.75;;;;;;;;5039574;28;51151;-55
2022/06/23 14:00:00;;;;;;;;;1.75;1.75;;;;;;;;5039932;28;51021;-50
2022/06/23 14:03:02;;;;;;;;;3.25;1.75;;;;;;;;5039042;28;51449;-55
2022/06/23 14:06:04;;;;;;;;;2.25;1.75;;;;;;;;5039291;28;51041;-53
2022/06/23 14:09:13;;;;;;;;;3.75;1.75;;;;;;;;5023615;28;51066;-56
2022/06/23 14:12:23;;;;;;;;;3.00;1.50;;;;;;;;5039460;28;51043;-54
2022/06/23 14:15:26;;;;;;;;;2.75;2.75;;;;;;;;5038856;28;51359;-54
2022/06/23 14:18:30;;;;;;;;;1.25;1.25;;;;;;;;5039133;28;51257;-55
2022/06/23 14:21:18;;;;;;;;;1.75;1.75;;;;;;;;5039431;28;51329;-55
2022/06/23 14:24:05;;;;;;;;;4.00;0.75;;;;;;;;5038776;28;51163;-53
2022/06/23 14:26:50;;;;;;;;;1.75;1.75;;;;;;;;5039411;28;51088;-53
2022/06/23 14:29:54;;;;;;;;;5.25;2.75;;;;;;;;5038751;28;51317;-54
2022/06/23 14:32:59;;;;;;;;;9.25;2.00;;;;;;;;5039194;28;51465;-53
2022/06/23 14:35:53;;;;;;;;;6.25;3.75;;;;;;;;5038906;28;51166;-54
2022/06/23 14:38:43;;;;;;;;;3.25;1.75;;;;;;;;5043428;28;51040;-56
2022/06/23 14:41:43;;;;;;;;;4.00;2.50;;;;;;;;5042959;28;51414;-54
2022/06/23 14:44:30;;;;;;;;;4.50;2.50;;;;;;;;5043035;28;51131;-52
2022/06/23 14:47:25;;;;;;;;;5.75;3.75;;;;;;;;5043301;28;51004;-54
2022/06/23 14:50:21;;;;;;;;;4.25;4.00;;;;;;;;5042747;28;51134;-55
2022/06/23 14:53:31;;;;;;;;;4.50;3.25;;;;;;;;5043117;28;51155;-51
2022/06/23 14:56:38;;;;;;;;;3.00;2.00;;;;;;;;5042977;28;51401;-50
2022/06/23 14:59:38;;;;;;;;;3.75;3.00;;;;;;;;5043551;28;51148;-54
2022/06/23 15:02:25;;;;;;;;;3.50;3.00;;;;;;;;5042749;28;50997;-47
2022/06/23 15:05:29;;;;;;;;;4.75;4.75;;;;;;;;5042950;28;51043;-55
2022/06/23 15:08:26;;;;;;;;;6.50;4.50;;;;;;;;5042691;28;51345;-55
2022/06/23 15:11:18;;;;;;;;;3.25;3.00;;;;;;;;5042743;28;52441;-54
2022/06/23 15:14:21;;;;;;;;;3.50;3.50;;;;;;;;5041640;28;51485;-52
2022/06/23 15:17:37;;;;;;;;;2.00;2.00;;;;;;;;5042304;28;51058;-51
2022/06/23 15:20:28;;;;;;;;;4.50;3.00;;;;;;;;4961300;28;51100;-56
2022/06/23 15:23:52;;;;;;;;;4.50;3.00;;;;;;;;4960922;28;51460;-54
2022/06/23 15:26:40;;;;;;;;;5.75;3.75;;;;;;;;4961114;28;51310;-57
2022/06/23 15:29:32;;;;;;;;;6.25;4.25;;;;;;;;4960610;28;51114;-48
2022/06/23 15:32:22;;;;;;;;;8.25;5.50;;;;;;;;4961148;28;51131;-56
2022/06/23 15:35:18;;;;;;;;;4.50;4.50;;;;;;;;4961229;28;51418;-56
2022/06/23 15:38:29;;;;;;;;;16.00;13.50;;;;;;;;5042079;28;51141;-51
2022/06/23 15:41:21;;;;;;;;;6.25;5.00;;;;;;;;5042142;28;51443;-57
2022/06/23 15:44:24;;;;;;;;;4.50;3.75;;;;;;;;5041980;28;51168;-50
2022/06/23 15:47:15;;;;;;;;;3.50;3.50;;;;;;;;5042073;28;51004;-52
2022/06/23 15:50:07;;;;;;;;;7.00;6.00;;;;;;;;5030190;28;51360;-54
2022/06/23 15:53:11;;;;;;;;;5.50;4.00;;;;;;;;5025657;28;51082;-55
2022/06/23 15:56:00;;;;;;;;;4.25;4.00;;;;;;;;5041148;28;51364;-55
2022/06/23 15:58:56;;;;;;;;;4.75;4.00;;;;;;;;5041131;28;51234;-51
2022/06/23 16:01:55;;;;;;;;;4.00;3.50;;;;;;;;5041034;28;51159;-54
2022/06/23 16:04:47;;;;;;;;;3.00;3.00;;;;;;;;5041574;28;51112;-56
2022/06/23 16:07:36;;;;;;;;;3.75;2.25;;;;;;;;5041842;28;51036;-51
2022/06/23 16:10:37;;;;;;;;;2.75;2.75;;;;;;;;5040968;28;51058;-52
2022/06/23 16:13:24;;;;;;;;;5.75;4.75;;;;;;;;5041048;28;51121;-49
2022/06/23 16:16:13;;;;;;;;;5.00;3.75;;;;;;;;5040506;28;51333;-56
2022/06/23 16:19:01;;;;;;;;;4.25;3.75;;;;;;;;5014783;28;52479;-56
2022/06/23 16:21:52;;;;;;;;;6.50;6.25;;;;;;;;5040255;28;51154;-55
2022/06/23 16:24:45;;;;;;;;;8.25;8.25;;;;;;;;5040099;28;51123;-53
2022/06/23 16:27:35;;;;;;;;;5.50;2.75;;;;;;;;5032557;28;51147;-52
2022/06/23 16:30:23;;;;;;;;;7.50;4.00;;;;;;;;5040419;28;51180;-50
2022/06/23 16:33:21;;;;;;;;;6.50;5.75;;;;;;;;5035875;28;51470;-52
2022/06/23 16:36:29;;;;;;;;;6.75;5.25;;;;;;;;5039988;28;51231;-55
2022/06/23 16:39:31;;;;;;;;;7.00;6.00;;;;;;;;5040880;28;51432;-54
2022/06/23 16:42:30;;;;;;;;;5.00;4.00;;;;;;;;5040163;28;51440;-57
2022/06/23 16:45:36;;;;;;;;;6.25;5.00;;;;;;;;5040246;28;51099;-55
2022/06/23 16:48:30;;;;;;;;;7.75;4.25;;;;;;;;5040345;28;51134;-57
2022/06/23 16:51:42;;;;;;;;;7.25;6.00;;;;;;;;5039759;28;51050;-55
2022/06/23 16:54:37;;;;;;;;;6.25;5.00;;;;;;;;4958627;28;51499;-50
2022/06/23 16:57:58;;;;;;;;;7.50;7.50;;;;;;;;4959352;28;51181;-55
2022/06/23 17:00:47;;;;;;;;;7.25;6.25;;;;;;;;5037150;28;51342;-54
2022/06/23 17:03:45;;;;;;;;;3.75;3.75;;;;;;;;5040121;28;51140;-53
2022/06/23 17:06:34;;;;;;;;;5.25;5.25;;;;;;;;5025140;28;51188;-51
2022/06/23 17:09:27;;;;;;;;;5.75;5.00;;;;;;;;5037837;28;51558;-53
2022/06/23 17:12:31;;;;;;;;;4.50;3.50;;;;;;;;5038280;28;51139;-52
2022/06/23 17:15:16;;;;;;;;;6.25;4.00;;;;;;;;5038928;28;51165;-53
2022/06/23 17:18:03;;;;;;;;;5.75;5.00;;;;;;;;5038103;28;51324;-54
2022/06/23 17:21:08;;;;;;;;;6.75;3.75;;;;;;;;5037641;28;51049;-53
2022/06/23 17:23:54;;;;;;;;;7.75;4.00;;;;;;;;5039213;28;51237;-52
2022/06/23 17:26:47;;;;;;;;;1.75;1.75;;;;;;;;5038749;28;51254;-53
2022/06/23 17:29:31;;;;;;;;;7.50;5.00;;;;;;;;5037491;28;51130;-53
2022/06/23 17:32:17;;;;;;;;;5.00;5.00;;;;;;;;5038444;28;51206;-51
2022/06/23 17:35:20;;;;;;;;;7.75;6.00;;;;;;;;5035866;28;51107;-53
2022/06/23 17:44:54;;;;;;;;;6.50;5.50;;;;;;;;5039118;28;51142;-52
2022/06/23 17:47:38;;;;;;;;;4.25;3.75;;;;;;;;5038258;28;51390;-57
2022/06/23 17:50:28;;;;;;;;;8.50;5.75;;;;;;;;5036124;28;51106;-55
2022/06/23 17:53:18;;;;;;;;;6.50;5.00;;;;;;;;5037670;28;51429;-51
2022/06/23 17:56:13;;;;;;;;;18.00;15.00;;;;;;;;5025753;28;51185;-56
2022/06/23 17:58:58;;;;;;;;;14.50;10.50;;;;;;;;5038102;28;51093;-52
2022/06/23 18:01:53;;;;;;;;;13.25;10.00;;;;;;;;5030862;28;51133;-56
2022/06/23 18:04:43;;;;;;;;;12.25;8.00;;;;;;;;5023254;28;51286;-56